PAED METAR and TAF weather

Enter ICAO airport designator
Station Type Date Time Source
PAED METAR 2021/03/04 23:56 UTC NOAA

PAED 042356Z 00000KT 10SM CLR M06/M10 A2974 RMK AO2A SLP070 4/019 T10571105 11055 21184 57009 $


Station Type Date Time Source
PAED Decoded METAR 2021/03/04 23:56 UTC NOAA

Anchorage, Elmendorf Air Force Base, AK, United States (PAED) 61-15-11N 149-47-38W 59M
Mar 04, 2021 - 06:56 PM EST / 2021.03.04 2356 UTC
Wind: Calm:0
Visibility: 10 mile(s):0
Sky conditions: clear
Weather: 19 inches of snow on ground
Temperature: 21.7 F (-5.7 C)
Dew Point: 13.1 F (-10.5 C)
Relative Humidity: 68%
Pressure (altimeter): 29.74 in. Hg (1007 hPa)
Pressure tendency: 0.03 inches (0.9 hPa) lower than three hours ago
ob: PAED 042356Z 00000KT 10SM CLR M06/M10 A2974 RMK AO2A SLP070 4/019 T10571105 11055 21184 57009
cycle: 0

Station Type Date Time Source
PAED TAF 2021/03/04 19:18 UTC NOAA

TAF PAED 041902Z 0419/0601 03003KT 9999 VCFG FEW100 QNH2972INS
BECMG 0421/0422 02006KT 9999 NSW FEW100 QNH2952INS
BECMG 0514/0515 01006KT 9999 SCT025 BKN060 QNH2943INS
BECMG 0522/0523 35006KT 8000 -SHSN BKN025 BKN075 QNH2940INS TXM08/0501Z TNM19/0510Z

Example: see airport list